sensor_id;sensor_type;location;lat;lon;timestamp;pressure;altitude;pressure_sealevel;temperature;humidity
48015;BME280;33780;51.034;7.120;2023-01-31T00:01:27;101658.09;;;6.51;71.90
48015;BME280;33780;51.034;7.120;2023-01-31T00:03:55;101664.19;;;6.53;71.83
48015;BME280;33780;51.034;7.120;2023-01-31T00:06:31;101663.44;;;6.51;71.73
48015;BME280;33780;51.034;7.120;2023-01-31T00:08:58;101665.16;;;6.52;71.66
48015;BME280;33780;51.034;7.120;2023-01-31T00:11:25;101674.91;;;6.52;71.64
48015;BME280;33780;51.034;7.120;2023-01-31T00:13:51;101669.59;;;6.52;71.50
48015;BME280;33780;51.034;7.120;2023-01-31T00:16:18;101673.13;;;6.52;72.07
48015;BME280;33780;51.034;7.120;2023-01-31T00:18:44;101673.91;;;6.54;71.47
48015;BME280;33780;51.034;7.120;2023-01-31T00:23:37;101676.47;;;6.56;71.49
48015;BME280;33780;51.034;7.120;2023-01-31T00:26:19;101669.34;;;6.56;71.39
48015;BME280;33780;51.034;7.120;2023-01-31T00:28:45;101668.56;;;6.54;71.50
48015;BME280;33780;51.034;7.120;2023-01-31T00:31:12;101673.03;;;6.54;71.35
48015;BME280;33780;51.034;7.120;2023-01-31T00:33:39;101674.75;;;6.55;71.29
48015;BME280;33780;51.034;7.120;2023-01-31T00:36:07;101666.84;;;6.53;71.89
48015;BME280;33780;51.034;7.120;2023-01-31T00:38:33;101673.91;;;6.54;71.30
48015;BME280;33780;51.034;7.120;2023-01-31T00:40:59;101664.97;;;6.55;71.54
48015;BME280;33780;51.034;7.120;2023-01-31T00:43:24;101667.72;;;6.54;71.61
48015;BME280;33780;51.034;7.120;2023-01-31T00:45:50;101659.91;;;6.51;71.72
48015;BME280;33780;51.034;7.120;2023-01-31T00:48:15;101667.97;;;6.49;71.84
48015;BME280;33780;51.034;7.120;2023-01-31T00:50:40;101663.59;;;6.48;72.12
48015;BME280;33780;51.034;7.120;2023-01-31T00:53:06;101672.53;;;6.47;71.80
48015;BME280;33780;51.034;7.120;2023-01-31T00:55:32;101660.09;;;6.48;72.22
48015;BME280;33780;51.034;7.120;2023-01-31T00:58:03;101660.09;;;6.48;71.98
48015;BME280;33780;51.034;7.120;2023-01-31T01:00:28;101656.47;;;6.49;71.99
48015;BME280;33780;51.034;7.120;2023-01-31T01:02:53;101653.91;;;6.47;72.54
48015;BME280;33780;51.034;7.120;2023-01-31T01:05:21;101660.84;;;6.50;71.56
48015;BME280;33780;51.034;7.120;2023-01-31T01:07:50;101661.78;;;6.49;71.59
48015;BME280;33780;51.034;7.120;2023-01-31T01:10:15;101669.78;;;6.49;72.02
48015;BME280;33780;51.034;7.120;2023-01-31T01:12:40;101666.25;;;6.48;71.67
48015;BME280;33780;51.034;7.120;2023-01-31T01:15:06;101671.56;;;6.48;71.87
48015;BME280;33780;51.034;7.120;2023-01-31T01:17:32;101671.56;;;6.48;71.95
48015;BME280;33780;51.034;7.120;2023-01-31T01:19:57;101668.09;;;6.46;71.73
48015;BME280;33780;51.034;7.120;2023-01-31T01:22:29;101671.72;;;6.45;72.42
48015;BME280;33780;51.034;7.120;2023-01-31T01:24:58;101671.72;;;6.45;71.97
48015;BME280;33780;51.034;7.120;2023-01-31T01:27:23;101665.63;;;6.43;71.76
48015;BME280;33780;51.034;7.120;2023-01-31T01:29:48;101675.41;;;6.43;71.87
48015;BME280;33780;51.034;7.120;2023-01-31T01:32:14;101669.22;;;6.42;71.32
48015;BME280;33780;51.034;7.120;2023-01-31T01:34:39;101665.63;;;6.43;71.95
48015;BME280;33780;51.034;7.120;2023-01-31T01:37:07;101670.94;;;6.43;71.90
48015;BME280;33780;51.034;7.120;2023-01-31T01:39:45;101662.09;;;6.43;71.14
48015;BME280;33780;51.034;7.120;2023-01-31T01:42:19;101668.28;;;6.43;71.95
48015;BME280;33780;51.034;7.120;2023-01-31T01:44:58;101675.41;;;6.43;71.60
48015;BME280;33780;51.034;7.120;2023-01-31T01:47:45;101670.94;;;6.43;71.47
48015;BME280;33780;51.034;7.120;2023-01-31T01:50:17;101668.28;;;6.43;71.95
48015;BME280;33780;51.034;7.120;2023-01-31T01:53:14;101668.28;;;6.43;71.57
48015;BME280;33780;51.034;7.120;2023-01-31T01:55:48;101669.13;;;6.44;71.57
48015;BME280;33780;51.034;7.120;2023-01-31T01:58:36;101665.63;;;6.43;71.51
48015;BME280;33780;51.034;7.120;2023-01-31T02:01:05;101667.34;;;6.44;71.50
48015;BME280;33780;51.034;7.120;2023-01-31T02:03:31;101654.97;;;6.43;71.72
48015;BME280;33780;51.034;7.120;2023-01-31T02:06:01;101659.44;;;6.43;72.02
48015;BME280;33780;51.034;7.120;2023-01-31T02:08:30;101655.06;;;6.42;71.76
48015;BME280;33780;51.034;7.120;2023-01-31T02:13:39;101657.03;;;6.38;71.92
48015;BME280;33780;51.034;7.120;2023-01-31T02:16:05;101661.50;;;6.38;71.32
48015;BME280;33780;51.034;7.120;2023-01-31T02:18:31;101666.91;;;6.36;71.68
48015;BME280;33780;51.034;7.120;2023-01-31T02:29:55;101670.59;;;6.33;71.68
48015;BME280;33780;51.034;7.120;2023-01-31T02:32:43;101665.34;;;6.32;71.79
48015;BME280;33780;51.034;7.120;2023-01-31T02:35:23;101668.94;;;6.31;72.31
48015;BME280;33780;51.034;7.120;2023-01-31T02:41:07;101662.88;;;6.29;72.11
48015;BME280;33780;51.034;7.120;2023-01-31T02:43:52;101666.44;;;6.28;71.95
48015;BME280;33780;51.034;7.120;2023-01-31T02:47:18;101661.19;;;6.26;71.58
48015;BME280;33780;51.034;7.120;2023-01-31T02:49:46;101656.81;;;6.25;71.88
48015;BME280;33780;51.034;7.120;2023-01-31T02:55:06;101666.59;;;6.25;71.54
48015;BME280;33780;51.034;7.120;2023-01-31T02:57:52;101672.84;;;6.24;71.67
48015;BME280;33780;51.034;7.120;2023-01-31T03:00:25;101672.84;;;6.24;71.62
48015;BME280;33780;51.034;7.120;2023-01-31T03:02:54;101671.13;;;6.23;71.90
48015;BME280;33780;51.034;7.120;2023-01-31T03:05:20;101671.22;;;6.21;71.68
48015;BME280;33780;51.034;7.120;2023-01-31T03:07:50;101667.69;;;6.21;71.80
48015;BME280;33780;51.034;7.120;2023-01-31T03:16:18;101665.22;;;6.18;71.64
48015;BME280;33780;51.034;7.120;2023-01-31T03:19:20;101661.00;;;6.14;71.55
48015;BME280;33780;51.034;7.120;2023-01-31T03:22:17;101658.44;;;6.12;71.87
48015;BME280;33780;51.034;7.120;2023-01-31T03:24:46;101650.53;;;6.11;71.81
48015;BME280;33780;51.034;7.120;2023-01-31T03:27:14;101655.84;;;6.11;72.32
48015;BME280;33780;51.034;7.120;2023-01-31T03:29:40;101648.88;;;6.08;72.27
48015;BME280;33780;51.034;7.120;2023-01-31T03:32:29;101652.47;;;6.07;72.24
48015;BME280;33780;51.034;7.120;2023-01-31T03:34:56;101649.91;;;6.05;71.88
48015;BME280;33780;51.034;7.120;2023-01-31T03:39:59;101648.34;;;6.01;71.47
48015;BME280;33780;51.034;7.120;2023-01-31T03:42:33;101650.31;;;5.98;72.06
48015;BME280;33780;51.034;7.120;2023-01-31T03:45:03;101639.75;;;5.96;72.25
48015;BME280;33780;51.034;7.120;2023-01-31T03:47:36;101644.22;;;5.96;72.28
48015;BME280;33780;51.034;7.120;2023-01-31T03:50:10;101640.78;;;5.94;72.43
48015;BME280;33780;51.034;7.120;2023-01-31T03:52:41;101639.94;;;5.93;72.32
48015;BME280;33780;51.034;7.120;2023-01-31T03:55:48;101643.56;;;5.91;72.77
48015;BME280;33780;51.034;7.120;2023-01-31T03:58:18;101640.09;;;5.89;72.36
48015;BME280;33780;51.034;7.120;2023-01-31T04:00:45;101637.44;;;5.89;72.29
48015;BME280;33780;51.034;7.120;2023-01-31T04:03:31;101638.47;;;5.86;72.62
48015;BME280;33780;51.034;7.120;2023-01-31T04:06:00;101649.97;;;5.87;72.03
48015;BME280;33780;51.034;7.120;2023-01-31T04:08:25;101642.94;;;5.86;71.99
48015;BME280;33780;51.034;7.120;2023-01-31T04:10:51;101639.41;;;5.85;71.86
48015;BME280;33780;51.034;7.120;2023-01-31T04:13:16;101638.63;;;5.83;72.09
48015;BME280;33780;51.034;7.120;2023-01-31T04:15:41;101642.22;;;5.82;71.62
48015;BME280;33780;51.034;7.120;2023-01-31T04:18:07;101632.63;;;5.80;71.94
48015;BME280;33780;51.034;7.120;2023-01-31T04:20:32;101633.66;;;5.77;71.62
48015;BME280;33780;51.034;7.120;2023-01-31T04:22:57;101628.47;;;5.74;71.86
48015;BME280;33780;51.034;7.120;2023-01-31T04:25:24;101617.94;;;5.72;71.79
48015;BME280;33780;51.034;7.120;2023-01-31T04:27:49;101624.25;;;5.70;71.79
48015;BME280;33780;51.034;7.120;2023-01-31T04:30:16;101622.72;;;5.66;71.25
48015;BME280;33780;51.034;7.120;2023-01-31T04:32:41;101629.97;;;5.62;71.66
48015;BME280;33780;51.034;7.120;2023-01-31T04:35:07;101620.53;;;5.57;71.31
48015;BME280;33780;51.034;7.120;2023-01-31T04:37:32;101620.75;;;5.52;71.21
48015;BME280;33780;51.034;7.120;2023-01-31T04:39:58;101616.69;;;5.45;71.31
48015;BME280;33780;51.034;7.120;2023-01-31T04:42:23;101614.28;;;5.40;71.20
48015;BME280;33780;51.034;7.120;2023-01-31T04:44:48;101618.06;;;5.35;70.83
48015;BME280;33780;51.034;7.120;2023-01-31T04:47:14;101621.91;;;5.29;70.81
48015;BME280;33780;51.034;7.120;2023-01-31T04:49:39;101617.75;;;5.24;70.84
48015;BME280;33780;51.034;7.120;2023-01-31T04:52:04;101620.69;;;5.18;71.19
48015;BME280;33780;51.034;7.120;2023-01-31T04:54:30;101615.69;;;5.11;71.22
48015;BME280;33780;51.034;7.120;2023-01-31T04:56:55;101614.06;;;5.09;71.01
48015;BME280;33780;51.034;7.120;2023-01-31T04:59:20;101608.91;;;5.06;70.90
48015;BME280;33780;51.034;7.120;2023-01-31T05:01:46;101614.38;;;5.03;71.38
48015;BME280;33780;51.034;7.120;2023-01-31T05:04:11;101614.56;;;4.98;71.29
48015;BME280;33780;51.034;7.120;2023-01-31T05:06:37;101604.09;;;4.95;71.02
48015;BME280;33780;51.034;7.120;2023-01-31T05:09:02;101612.22;;;4.92;70.90
48015;BME280;33780;51.034;7.120;2023-01-31T05:11:28;101600.03;;;4.88;71.16
48015;BME280;33780;51.034;7.120;2023-01-31T05:13:53;101599.31;;;4.84;71.01
48015;BME280;33780;51.034;7.120;2023-01-31T05:16:18;101602.09;;;4.81;70.78
48015;BME280;33780;51.034;7.120;2023-01-31T05:18:44;101604.13;;;4.76;71.25
48015;BME280;33780;51.034;7.120;2023-01-31T05:21:09;101606.06;;;4.73;70.93
48015;BME280;33780;51.034;7.120;2023-01-31T05:23:34;101605.38;;;4.69;71.20
48015;BME280;33780;51.034;7.120;2023-01-31T05:26:00;101601.94;;;4.67;70.66
48015;BME280;33780;51.034;7.120;2023-01-31T05:28:25;101598.53;;;4.64;70.92
48015;BME280;33780;51.034;7.120;2023-01-31T05:30:51;101593.38;;;4.61;70.67
48015;BME280;33780;51.034;7.120;2023-01-31T05:33:18;101597.03;;;4.58;70.51
48015;BME280;33780;51.034;7.120;2023-01-31T05:35:47;101596.25;;;4.56;71.20
48015;BME280;33780;51.034;7.120;2023-01-31T05:38:12;101595.47;;;4.54;71.42
48015;BME280;33780;51.034;7.120;2023-01-31T05:40:38;101598.13;;;4.54;71.38
48015;BME280;33780;51.034;7.120;2023-01-31T05:43:03;101601.63;;;4.54;71.52
48015;BME280;33780;51.034;7.120;2023-01-31T05:45:36;101602.56;;;4.53;71.36
48015;BME280;33780;51.034;7.120;2023-01-31T05:48:01;101603.44;;;4.54;71.91
48015;BME280;33780;51.034;7.120;2023-01-31T05:50:27;101603.44;;;4.54;72.12
48015;BME280;33780;51.034;7.120;2023-01-31T05:53:00;101598.13;;;4.54;71.75
48015;BME280;33780;51.034;7.120;2023-01-31T05:55:27;101597.13;;;4.57;72.08
48015;BME280;33780;51.034;7.120;2023-01-31T05:57:53;101592.75;;;4.55;71.96
48015;BME280;33780;51.034;7.120;2023-01-31T06:00:19;101599.78;;;4.57;72.18
48015;BME280;33780;51.034;7.120;2023-01-31T06:02:45;101595.31;;;4.57;72.53
48015;BME280;33780;51.034;7.120;2023-01-31T06:05:18;101593.47;;;4.59;72.75
48015;BME280;33780;51.034;7.120;2023-01-31T06:07:49;101594.31;;;4.60;72.77
48015;BME280;33780;51.034;7.120;2023-01-31T06:10:15;101585.44;;;4.61;72.30
48015;BME280;33780;51.034;7.120;2023-01-31T06:12:57;101579.19;;;4.62;72.69
48015;BME280;33780;51.034;7.120;2023-01-31T06:15:28;101573.81;;;4.63;72.56
48015;BME280;33780;51.034;7.120;2023-01-31T06:17:53;101579.91;;;4.65;72.60
48015;BME280;33780;51.034;7.120;2023-01-31T06:20:22;101581.56;;;4.68;73.08
48015;BME280;33780;51.034;7.120;2023-01-31T06:22:52;101581.56;;;4.68;73.29
48015;BME280;33780;51.034;7.120;2023-01-31T06:25:21;101579.78;;;4.68;73.06
48015;BME280;33780;51.034;7.120;2023-01-31T06:27:49;101579.72;;;4.70;72.81
48015;BME280;33780;51.034;7.120;2023-01-31T06:30:17;101579.63;;;4.71;73.09
48015;BME280;33780;51.034;7.120;2023-01-31T06:32:56;101568.09;;;4.72;72.92
48015;BME280;33780;51.034;7.120;2023-01-31T06:35:26;101567.09;;;4.75;73.01
48015;BME280;33780;51.034;7.120;2023-01-31T06:38:02;101562.56;;;4.77;72.94
48015;BME280;33780;51.034;7.120;2023-01-31T06:40:35;101570.44;;;4.78;72.88
48015;BME280;33780;51.034;7.120;2023-01-31T06:43:01;101568.72;;;4.77;73.93
48015;BME280;33780;51.034;7.120;2023-01-31T06:45:35;101564.28;;;4.78;73.58
48015;BME280;33780;51.034;7.120;2023-01-31T06:48:10;101560.69;;;4.79;73.57
48015;BME280;33780;51.034;7.120;2023-01-31T06:50:36;101557.97;;;4.80;73.38
48015;BME280;33780;51.034;7.120;2023-01-31T06:53:03;101565.84;;;4.82;73.54
48015;BME280;33780;51.034;7.120;2023-01-31T06:55:28;101572.00;;;4.82;73.50
48015;BME280;33780;51.034;7.120;2023-01-31T06:57:54;101571.06;;;4.83;73.41
48015;BME280;33780;51.034;7.120;2023-01-31T07:00:27;101574.53;;;4.85;73.50
48015;BME280;33780;51.034;7.120;2023-01-31T07:03:00;101567.34;;;4.88;73.48
48015;BME280;33780;51.034;7.120;2023-01-31T07:05:25;101582.19;;;4.92;73.53
48015;BME280;33780;51.034;7.120;2023-01-31T07:07:53;101580.31;;;4.94;73.90
48015;BME280;33780;51.034;7.120;2023-01-31T07:10:27;101582.03;;;4.95;73.59
48015;BME280;33780;51.034;7.120;2023-01-31T07:12:53;101583.59;;;4.99;73.87
48015;BME280;33780;51.034;7.120;2023-01-31T07:15:18;101572.03;;;5.00;73.74
48015;BME280;33780;51.034;7.120;2023-01-31T07:17:43;101579.88;;;5.03;73.86
48015;BME280;33780;51.034;7.120;2023-01-31T07:20:09;101588.63;;;5.05;74.13
48015;BME280;33780;51.034;7.120;2023-01-31T07:22:37;101584.94;;;5.07;74.06
48015;BME280;33780;51.034;7.120;2023-01-31T07:25:06;101585.72;;;5.09;73.96
48015;BME280;33780;51.034;7.120;2023-01-31T07:27:31;101584.72;;;5.12;74.21
48015;BME280;33780;51.034;7.120;2023-01-31T07:30:00;101586.44;;;5.13;73.99
48015;BME280;33780;51.034;7.120;2023-01-31T07:32:30;101583.63;;;5.16;74.01
48015;BME280;33780;51.034;7.120;2023-01-31T07:34:56;101585.25;;;5.19;73.93
48015;BME280;33780;51.034;7.120;2023-01-31T07:37:27;101576.38;;;5.20;74.38
48015;BME280;33780;51.034;7.120;2023-01-31T07:39:56;101569.22;;;5.22;74.45
48015;BME280;33780;51.034;7.120;2023-01-31T07:42:27;101575.22;;;5.25;74.02
48015;BME280;33780;51.034;7.120;2023-01-31T07:45:08;101562.72;;;5.27;74.22
48015;BME280;33780;51.034;7.120;2023-01-31T07:47:40;101557.34;;;5.29;73.87
48015;BME280;33780;51.034;7.120;2023-01-31T07:50:09;101567.88;;;5.30;74.47
48015;BME280;33780;51.034;7.120;2023-01-31T07:52:38;101567.72;;;5.33;74.32
48015;BME280;33780;51.034;7.120;2023-01-31T07:55:09;101560.53;;;5.35;74.23
48015;BME280;33780;51.034;7.120;2023-01-31T07:57:45;101554.22;;;5.38;73.95
48015;BME280;33780;51.034;7.120;2023-01-31T08:00:13;101550.66;;;5.39;74.32
48015;BME280;33780;51.034;7.120;2023-01-31T08:03:00;101554.00;;;5.42;74.44
48015;BME280;33780;51.034;7.120;2023-01-31T08:05:47;101551.19;;;5.45;74.07
48015;BME280;33780;51.034;7.120;2023-01-31T08:08:29;101548.38;;;5.49;74.04
48015;BME280;33780;51.034;7.120;2023-01-31T08:11:23;101550.00;;;5.51;74.53
48015;BME280;33780;51.034;7.120;2023-01-31T08:14:02;101548.03;;;5.55;74.15
48015;BME280;33780;51.034;7.120;2023-01-31T08:16:50;101545.31;;;5.56;73.79
48015;BME280;33780;51.034;7.120;2023-01-31T08:19:18;101558.44;;;5.59;73.44
48015;BME280;33780;51.034;7.120;2023-01-31T08:21:43;101564.53;;;5.61;73.93
48015;BME280;33780;51.034;7.120;2023-01-31T08:24:09;101558.91;;;5.67;74.21
48015;BME280;33780;51.034;7.120;2023-01-31T08:26:34;101554.19;;;5.72;73.62
48015;BME280;33780;51.034;7.120;2023-01-31T08:29:00;101548.75;;;5.75;74.04
48015;BME280;33780;51.034;7.120;2023-01-31T08:31:26;101542.31;;;5.80;73.60
48015;BME280;33780;51.034;7.120;2023-01-31T08:33:53;101538.56;;;5.84;73.43
48015;BME280;33780;51.034;7.120;2023-01-31T08:36:30;101528.53;;;5.89;73.37
48015;BME280;33780;51.034;7.120;2023-01-31T08:38:59;101530.16;;;5.93;73.11
48015;BME280;33780;51.034;7.120;2023-01-31T08:41:26;101529.91;;;5.97;72.85
48015;BME280;33780;51.034;7.120;2023-01-31T08:43:52;101533.31;;;5.99;72.64
48015;BME280;33780;51.034;7.120;2023-01-31T08:46:23;101534.00;;;6.03;72.16
48015;BME280;33780;51.034;7.120;2023-01-31T08:48:51;101514.56;;;6.02;73.06
48015;BME280;33780;51.034;7.120;2023-01-31T08:51:23;101525.03;;;6.05;72.52
48015;BME280;33780;51.034;7.120;2023-01-31T08:54:02;101525.88;;;6.06;72.13
48015;BME280;33780;51.034;7.120;2023-01-31T08:56:45;101527.59;;;6.07;71.92
48015;BME280;33780;51.034;7.120;2023-01-31T08:59:16;101524.84;;;6.09;72.38
48015;BME280;33780;51.034;7.120;2023-01-31T09:01:42;101537.13;;;6.11;72.60
48015;BME280;33780;51.034;7.120;2023-01-31T09:04:16;101527.38;;;6.12;72.73
48015;BME280;33780;51.034;7.120;2023-01-31T09:06:47;101526.50;;;6.11;71.84
48015;BME280;33780;51.034;7.120;2023-01-31T09:09:19;101517.59;;;6.12;71.99
48015;BME280;33780;51.034;7.120;2023-01-31T09:11:50;101513.03;;;6.14;72.29
48015;BME280;33780;51.034;7.120;2023-01-31T09:14:15;101513.91;;;6.15;72.08
48015;BME280;33780;51.034;7.120;2023-01-31T09:16:41;101510.13;;;6.19;72.69
48015;BME280;33780;51.034;7.120;2023-01-31T09:19:15;101500.28;;;6.21;71.59
48015;BME280;33780;51.034;7.120;2023-01-31T09:22:04;101496.56;;;6.23;72.42
48015;BME280;33780;51.034;7.120;2023-01-31T09:24:33;101492.03;;;6.25;72.36
48015;BME280;33780;51.034;7.120;2023-01-31T09:27:04;101488.34;;;6.28;72.74
48015;BME280;33780;51.034;7.120;2023-01-31T09:29:32;101487.34;;;6.30;72.58
48015;BME280;33780;51.034;7.120;2023-01-31T09:31:58;101479.28;;;6.32;72.76
48015;BME280;33780;51.034;7.120;2023-01-31T09:34:23;101484.41;;;6.35;72.96
48015;BME280;33780;51.034;7.120;2023-01-31T09:36:49;101490.41;;;6.39;72.91
48015;BME280;33780;51.034;7.120;2023-01-31T09:39:14;101493.84;;;6.41;73.07
48015;BME280;33780;51.034;7.120;2023-01-31T09:41:56;101488.44;;;6.42;72.82
48015;BME280;33780;51.034;7.120;2023-01-31T09:44:38;101490.16;;;6.43;72.63
48015;BME280;33780;51.034;7.120;2023-01-31T09:47:27;101497.19;;;6.44;73.33
48015;BME280;33780;51.034;7.120;2023-01-31T09:50:03;101493.56;;;6.45;73.69
48015;BME280;33780;51.034;7.120;2023-01-31T09:52:36;101487.50;;;6.43;73.55
48015;BME280;33780;51.034;7.120;2023-01-31T09:55:45;101478.75;;;6.41;73.26
48015;BME280;33780;51.034;7.120;2023-01-31T09:58:45;101489.38;;;6.41;73.41
48015;BME280;33780;51.034;7.120;2023-01-31T10:11:42;101473.78;;;6.35;74.74
48015;BME280;33780;51.034;7.120;2023-01-31T10:22:59;101465.03;;;6.33;75.90
48015;BME280;33780;51.034;7.120;2023-01-31T10:25:53;101456.13;;;6.34;75.73
48015;BME280;33780;51.034;7.120;2023-01-31T10:28:38;101456.97;;;6.34;75.14
48015;BME280;33780;51.034;7.120;2023-01-31T10:32:27;101440.09;;;6.35;76.44
48015;BME280;33780;51.034;7.120;2023-01-31T10:35:02;101438.38;;;6.34;75.94
48015;BME280;33780;51.034;7.120;2023-01-31T10:37:48;101431.16;;;6.36;75.83
48015;BME280;33780;51.034;7.120;2023-01-31T10:45:45;101431.75;;;6.42;76.86
48015;BME280;33780;51.034;7.120;2023-01-31T10:54:39;101404.13;;;6.44;76.71
48015;BME280;33780;51.034;7.120;2023-01-31T10:57:21;101402.31;;;6.45;76.91
48015;BME280;33780;51.034;7.120;2023-01-31T11:03:55;101394.34;;;6.45;77.70
48015;BME280;33780;51.034;7.120;2023-01-31T11:06:56;101376.53;;;6.47;77.61
48015;BME280;33780;51.034;7.120;2023-01-31T11:10:00;101373.88;;;6.47;77.91
48015;BME280;33780;51.034;7.120;2023-01-31T11:15:50;101365.81;;;6.48;78.13
48015;BME280;33780;51.034;7.120;2023-01-31T11:27:59;101339.22;;;6.62;78.02
48015;BME280;33780;51.034;7.120;2023-01-31T11:34:27;101327.31;;;6.70;78.36
48015;BME280;33780;51.034;7.120;2023-01-31T11:41:01;101323.50;;;6.74;77.60
48015;BME280;33780;51.034;7.120;2023-01-31T11:44:07;101332.16;;;6.77;77.94
48015;BME280;33780;51.034;7.120;2023-01-31T11:47:04;101318.84;;;6.77;77.13
48015;BME280;33780;51.034;7.120;2023-01-31T11:50:02;101315.13;;;6.80;77.52
48015;BME280;33780;51.034;7.120;2023-01-31T11:55:59;101289.31;;;6.82;76.80
48015;BME280;33780;51.034;7.120;2023-01-31T11:59:02;101299.78;;;6.85;77.35
48015;BME280;33780;51.034;7.120;2023-01-31T12:02:21;101295.22;;;6.87;77.50
48015;BME280;33780;51.034;7.120;2023-01-31T12:05:06;101285.53;;;6.86;77.17
48015;BME280;33780;51.034;7.120;2023-01-31T12:07:53;101284.47;;;6.88;77.19
48015;BME280;33780;51.034;7.120;2023-01-31T12:10:44;101285.25;;;6.90;77.16
48015;BME280;33780;51.034;7.120;2023-01-31T12:13:23;101278.00;;;6.92;76.47
48015;BME280;33780;51.034;7.120;2023-01-31T12:21:49;101276.78;;;6.98;76.93
48015;BME280;33780;51.034;7.120;2023-01-31T12:40:43;101266.81;;;7.02;76.63
48015;BME280;33780;51.034;7.120;2023-01-31T13:08:16;101262.50;;;7.13;77.92
48015;BME280;33780;51.034;7.120;2023-01-31T13:11:26;101249.22;;;7.13;77.10
48015;BME280;33780;51.034;7.120;2023-01-31T13:14:13;101253.56;;;7.14;78.07
48015;BME280;33780;51.034;7.120;2023-01-31T13:16:46;101243.78;;;7.15;77.61
48015;BME280;33780;51.034;7.120;2023-01-31T13:25:32;101252.63;;;7.15;77.50
48015;BME280;33780;51.034;7.120;2023-01-31T13:28:09;101259.75;;;7.15;78.04
48015;BME280;33780;51.034;7.120;2023-01-31T13:31:02;101261.47;;;7.16;78.26
48015;BME280;33780;51.034;7.120;2023-01-31T13:34:18;101263.16;;;7.17;77.64
48015;BME280;33780;51.034;7.120;2023-01-31T13:42:44;101242.38;;;7.23;77.82
48015;BME280;33780;51.034;7.120;2023-01-31T13:45:25;101245.13;;;7.22;78.46
48015;BME280;33780;51.034;7.120;2023-01-31T13:54:24;101255.66;;;7.23;77.97
48015;BME280;33780;51.034;7.120;2023-01-31T13:56:57;101261.09;;;7.22;78.03
48015;BME280;33780;51.034;7.120;2023-01-31T14:02:25;101245.22;;;7.20;78.33
48015;BME280;33780;51.034;7.120;2023-01-31T14:05:48;101261.09;;;7.22;79.61
48015;BME280;33780;51.034;7.120;2023-01-31T14:14:19;101251.50;;;7.19;79.90
48015;BME280;33780;51.034;7.120;2023-01-31T14:22:40;101257.78;;;7.18;81.45
48015;BME280;33780;51.034;7.120;2023-01-31T14:25:44;101245.38;;;7.17;80.29
48015;BME280;33780;51.034;7.120;2023-01-31T14:28:15;101249.84;;;7.17;80.67
48015;BME280;33780;51.034;7.120;2023-01-31T14:30:46;101240.06;;;7.17;81.39
48015;BME280;33780;51.034;7.120;2023-01-31T14:33:24;101240.06;;;7.17;81.08
48015;BME280;33780;51.034;7.120;2023-01-31T14:36:38;101239.22;;;7.17;82.30
48015;BME280;33780;51.034;7.120;2023-01-31T14:42:25;101238.38;;;7.16;81.49
48015;BME280;33780;51.034;7.120;2023-01-31T14:48:59;101247.31;;;7.15;82.41
48015;BME280;33780;51.034;7.120;2023-01-31T14:51:18;101249.31;;;7.12;83.39
48015;BME280;33780;51.034;7.120;2023-01-31T15:00:24;101245.78;;;7.11;81.93
48015;BME280;33780;51.034;7.120;2023-01-31T15:05:45;101239.41;;;7.14;82.58
48015;BME280;33780;51.034;7.120;2023-01-31T15:13:54;101225.06;;;7.16;82.33
48015;BME280;33780;51.034;7.120;2023-01-31T15:16:31;101243.69;;;7.16;82.75
48015;BME280;33780;51.034;7.120;2023-01-31T15:19:11;101239.16;;;7.18;82.73
48015;BME280;33780;51.034;7.120;2023-01-31T15:24:53;101253.38;;;7.17;82.81
48015;BME280;33780;51.034;7.120;2023-01-31T15:27:36;101253.22;;;7.20;83.23
48015;BME280;33780;51.034;7.120;2023-01-31T15:30:20;101264.72;;;7.21;83.22
48015;BME280;33780;51.034;7.120;2023-01-31T15:33:12;101267.38;;;7.21;83.48
48015;BME280;33780;51.034;7.120;2023-01-31T15:35:59;101263.97;;;7.19;83.15
48015;BME280;33780;51.034;7.120;2023-01-31T15:38:56;101269.28;;;7.19;83.24
48015;BME280;33780;51.034;7.120;2023-01-31T15:41:39;101266.69;;;7.17;83.77
48015;BME280;33780;51.034;7.120;2023-01-31T15:44:20;101263.16;;;7.17;84.28
48015;BME280;33780;51.034;7.120;2023-01-31T15:46:49;101266.88;;;7.14;85.05
48015;BME280;33780;51.034;7.120;2023-01-31T15:49:32;101274.00;;;7.14;84.69
48015;BME280;33780;51.034;7.120;2023-01-31T15:54:57;101266.97;;;7.13;84.69
48015;BME280;33780;51.034;7.120;2023-01-31T15:57:40;101258.78;;;7.16;84.42
48015;BME280;33780;51.034;7.120;2023-01-31T16:00:18;101272.00;;;7.17;84.24
48015;BME280;33780;51.034;7.120;2023-01-31T16:03:02;101277.25;;;7.19;85.12
48015;BME280;33780;51.034;7.120;2023-01-31T16:05:39;101283.44;;;7.19;85.39
48015;BME280;33780;51.034;7.120;2023-01-31T16:08:27;101287.72;;;7.22;85.94
48015;BME280;33780;51.034;7.120;2023-01-31T16:10:59;101278.88;;;7.21;84.80
48015;BME280;33780;51.034;7.120;2023-01-31T16:13:41;101276.13;;;7.23;84.67
48015;BME280;33780;51.034;7.120;2023-01-31T16:16:16;101287.50;;;7.25;84.57
48015;BME280;33780;51.034;7.120;2023-01-31T16:19:06;101288.28;;;7.27;84.76
48015;BME280;33780;51.034;7.120;2023-01-31T16:21:55;101286.38;;;7.29;84.25
48015;BME280;33780;51.034;7.120;2023-01-31T16:27:38;101297.66;;;7.33;85.05
48015;BME280;33780;51.034;7.120;2023-01-31T16:30:18;101287.88;;;7.33;84.98
48015;BME280;33780;51.034;7.120;2023-01-31T16:33:00;101302.03;;;7.34;84.72
48015;BME280;33780;51.034;7.120;2023-01-31T16:35:44;101307.25;;;7.35;84.71
48015;BME280;33780;51.034;7.120;2023-01-31T16:38:53;101309.06;;;7.35;85.28
48015;BME280;33780;51.034;7.120;2023-01-31T16:41:49;101309.06;;;7.35;85.11
48015;BME280;33780;51.034;7.120;2023-01-31T16:47:45;101316.09;;;7.36;85.14
48015;BME280;33780;51.034;7.120;2023-01-31T16:50:27;101329.41;;;7.36;85.51
48015;BME280;33780;51.034;7.120;2023-01-31T16:53:33;101327.66;;;7.36;85.14
48015;BME280;33780;51.034;7.120;2023-01-31T16:56:19;101319.56;;;7.38;84.72
48015;BME280;33780;51.034;7.120;2023-01-31T17:02:00;101324.69;;;7.41;85.09
48015;BME280;33780;51.034;7.120;2023-01-31T17:04:37;101319.34;;;7.41;85.26